sensor_id;sensor_type;location;lat;lon;timestamp;P1;durP1;ratioP1;P2;durP2;ratioP2
7917;SDS011;4004;42.624;23.386;2023-08-17T00:01:35;10.83;;;6.87;;
7917;SDS011;4004;42.624;23.386;2023-08-17T00:04:01;8.77;;;6.23;;
7917;SDS011;4004;42.624;23.386;2023-08-17T00:06:28;6.37;;;5.77;;
7917;SDS011;4004;42.624;23.386;2023-08-17T00:08:55;6.07;;;5.40;;
7917;SDS011;4004;42.624;23.386;2023-08-17T00:11:22;10.43;;;5.93;;
7917;SDS011;4004;42.624;23.386;2023-08-17T00:13:49;8.93;;;5.87;;
7917;SDS011;4004;42.624;23.386;2023-08-17T00:16:17;8.77;;;5.73;;
7917;SDS011;4004;42.624;23.386;2023-08-17T00:18:44;13.50;;;5.53;;
7917;SDS011;4004;42.624;23.386;2023-08-17T00:21:10;8.47;;;5.70;;
7917;SDS011;4004;42.624;23.386;2023-08-17T00:23:37;8.97;;;5.53;;
7917;SDS011;4004;42.624;23.386;2023-08-17T00:26:04;7.20;;;5.00;;
7917;SDS011;4004;42.624;23.386;2023-08-17T00:28:31;5.37;;;4.87;;
7917;SDS011;4004;42.624;23.386;2023-08-17T00:30:59;7.00;;;4.40;;
7917;SDS011;4004;42.624;23.386;2023-08-17T00:33:27;8.27;;;5.10;;
7917;SDS011;4004;42.624;23.386;2023-08-17T00:35:55;5.87;;;4.37;;
7917;SDS011;4004;42.624;23.386;2023-08-17T00:38:22;8.40;;;4.63;;
7917;SDS011;4004;42.624;23.386;2023-08-17T00:40:49;7.53;;;4.50;;
7917;SDS011;4004;42.624;23.386;2023-08-17T00:43:16;6.53;;;4.50;;
7917;SDS011;4004;42.624;23.386;2023-08-17T00:45:43;9.50;;;4.93;;
7917;SDS011;4004;42.624;23.386;2023-08-17T00:48:13;7.67;;;4.10;;
7917;SDS011;4004;42.624;23.386;2023-08-17T00:50:42;7.63;;;4.83;;
7917;SDS011;4004;42.624;23.386;2023-08-17T00:53:13;7.33;;;4.43;;
7917;SDS011;4004;42.624;23.386;2023-08-17T00:55:41;6.17;;;4.00;;
7917;SDS011;4004;42.624;23.386;2023-08-17T00:58:08;4.40;;;3.93;;
7917;SDS011;4004;42.624;23.386;2023-08-17T01:00:35;4.30;;;3.80;;
7917;SDS011;4004;42.624;23.386;2023-08-17T01:03:02;7.87;;;4.30;;
7917;SDS011;4004;42.624;23.386;2023-08-17T01:05:30;5.23;;;4.27;;
7917;SDS011;4004;42.624;23.386;2023-08-17T01:07:59;4.93;;;3.50;;
7917;SDS011;4004;42.624;23.386;2023-08-17T01:10:26;7.20;;;3.87;;
7917;SDS011;4004;42.624;23.386;2023-08-17T01:13:04;5.43;;;4.20;;
7917;SDS011;4004;42.624;23.386;2023-08-17T01:15:36;8.37;;;4.50;;
7917;SDS011;4004;42.624;23.386;2023-08-17T01:18:07;6.43;;;4.00;;
7917;SDS011;4004;42.624;23.386;2023-08-17T01:20:42;5.23;;;4.07;;
7917;SDS011;4004;42.624;23.386;2023-08-17T01:23:10;4.43;;;4.03;;
7917;SDS011;4004;42.624;23.386;2023-08-17T01:25:37;5.83;;;3.97;;
7917;SDS011;4004;42.624;23.386;2023-08-17T01:28:04;7.87;;;4.03;;
7917;SDS011;4004;42.624;23.386;2023-08-17T01:30:33;9.50;;;3.93;;
7917;SDS011;4004;42.624;23.386;2023-08-17T01:33:06;3.77;;;3.17;;
7917;SDS011;4004;42.624;23.386;2023-08-17T01:35:37;6.37;;;3.50;;
7917;SDS011;4004;42.624;23.386;2023-08-17T01:38:14;6.87;;;4.40;;
7917;SDS011;4004;42.624;23.386;2023-08-17T01:40:45;5.97;;;3.90;;
7917;SDS011;4004;42.624;23.386;2023-08-17T01:43:13;4.07;;;3.63;;
7917;SDS011;4004;42.624;23.386;2023-08-17T01:45:42;4.87;;;3.63;;
7917;SDS011;4004;42.624;23.386;2023-08-17T01:48:09;7.50;;;3.50;;
7917;SDS011;4004;42.624;23.386;2023-08-17T01:50:36;3.80;;;3.50;;
7917;SDS011;4004;42.624;23.386;2023-08-17T01:53:03;4.13;;;3.43;;
7917;SDS011;4004;42.624;23.386;2023-08-17T01:55:31;4.50;;;3.53;;
7917;SDS011;4004;42.624;23.386;2023-08-17T01:58:00;4.13;;;3.23;;
7917;SDS011;4004;42.624;23.386;2023-08-17T02:00:27;7.40;;;3.57;;
7917;SDS011;4004;42.624;23.386;2023-08-17T02:02:54;4.83;;;3.10;;
7917;SDS011;4004;42.624;23.386;2023-08-17T02:05:20;4.10;;;3.60;;
7917;SDS011;4004;42.624;23.386;2023-08-17T02:07:47;6.03;;;3.10;;
7917;SDS011;4004;42.624;23.386;2023-08-17T02:10:14;6.67;;;3.60;;
7917;SDS011;4004;42.624;23.386;2023-08-17T02:12:42;4.53;;;3.43;;
7917;SDS011;4004;42.624;23.386;2023-08-17T02:15:09;6.30;;;3.20;;
7917;SDS011;4004;42.624;23.386;2023-08-17T02:17:36;4.97;;;3.83;;
7917;SDS011;4004;42.624;23.386;2023-08-17T02:20:03;5.63;;;3.30;;
7917;SDS011;4004;42.624;23.386;2023-08-17T02:22:30;4.23;;;3.13;;
7917;SDS011;4004;42.624;23.386;2023-08-17T02:24:57;4.17;;;3.30;;
7917;SDS011;4004;42.624;23.386;2023-08-17T02:27:24;4.47;;;3.30;;
7917;SDS011;4004;42.624;23.386;2023-08-17T02:29:52;5.60;;;3.13;;
7917;SDS011;4004;42.624;23.386;2023-08-17T02:32:19;4.80;;;3.27;;
7917;SDS011;4004;42.624;23.386;2023-08-17T02:34:46;5.37;;;3.50;;
7917;SDS011;4004;42.624;23.386;2023-08-17T02:37:12;10.97;;;4.00;;
7917;SDS011;4004;42.624;23.386;2023-08-17T02:39:39;5.60;;;3.40;;
7917;SDS011;4004;42.624;23.386;2023-08-17T02:42:07;9.00;;;3.27;;
7917;SDS011;4004;42.624;23.386;2023-08-17T02:44:33;5.23;;;2.93;;
7917;SDS011;4004;42.624;23.386;2023-08-17T02:47:02;3.23;;;2.73;;
7917;SDS011;4004;42.624;23.386;2023-08-17T02:49:28;5.50;;;3.37;;
7917;SDS011;4004;42.624;23.386;2023-08-17T02:51:55;4.87;;;3.43;;
7917;SDS011;4004;42.624;23.386;2023-08-17T02:54:22;3.87;;;2.93;;
7917;SDS011;4004;42.624;23.386;2023-08-17T02:56:48;4.50;;;2.93;;
7917;SDS011;4004;42.624;23.386;2023-08-17T02:59:15;4.20;;;3.50;;
7917;SDS011;4004;42.624;23.386;2023-08-17T03:01:43;5.53;;;3.13;;
7917;SDS011;4004;42.624;23.386;2023-08-17T03:04:11;3.60;;;3.17;;
7917;SDS011;4004;42.624;23.386;2023-08-17T03:06:38;6.03;;;3.07;;
7917;SDS011;4004;42.624;23.386;2023-08-17T03:09:05;6.37;;;3.30;;
7917;SDS011;4004;42.624;23.386;2023-08-17T03:11:32;5.27;;;3.30;;
7917;SDS011;4004;42.624;23.386;2023-08-17T03:13:58;8.10;;;3.40;;
7917;SDS011;4004;42.624;23.386;2023-08-17T03:16:26;7.30;;;3.53;;
7917;SDS011;4004;42.624;23.386;2023-08-17T03:18:55;6.77;;;3.60;;
7917;SDS011;4004;42.624;23.386;2023-08-17T03:21:23;3.93;;;3.53;;
7917;SDS011;4004;42.624;23.386;2023-08-17T03:23:50;4.03;;;3.13;;
7917;SDS011;4004;42.624;23.386;2023-08-17T03:26:17;3.80;;;3.40;;
7917;SDS011;4004;42.624;23.386;2023-08-17T03:28:44;5.17;;;3.00;;
7917;SDS011;4004;42.624;23.386;2023-08-17T03:31:11;5.17;;;3.40;;
7917;SDS011;4004;42.624;23.386;2023-08-17T03:33:38;4.63;;;3.60;;
7917;SDS011;4004;42.624;23.386;2023-08-17T03:36:06;6.17;;;3.60;;
7917;SDS011;4004;42.624;23.386;2023-08-17T03:38:34;3.50;;;3.20;;
7917;SDS011;4004;42.624;23.386;2023-08-17T03:41:02;3.47;;;3.17;;
7917;SDS011;4004;42.624;23.386;2023-08-17T03:43:30;3.77;;;3.17;;
7917;SDS011;4004;42.624;23.386;2023-08-17T03:45:56;4.17;;;3.20;;
7917;SDS011;4004;42.624;23.386;2023-08-17T03:48:23;6.23;;;3.03;;
7917;SDS011;4004;42.624;23.386;2023-08-17T03:50:51;6.47;;;2.87;;
7917;SDS011;4004;42.624;23.386;2023-08-17T03:53:18;5.33;;;3.17;;
7917;SDS011;4004;42.624;23.386;2023-08-17T03:55:47;6.63;;;3.37;;
7917;SDS011;4004;42.624;23.386;2023-08-17T03:58:14;4.67;;;3.50;;
7917;SDS011;4004;42.624;23.386;2023-08-17T04:00:41;2.97;;;2.67;;
7917;SDS011;4004;42.624;23.386;2023-08-17T04:03:08;4.37;;;2.83;;
7917;SDS011;4004;42.624;23.386;2023-08-17T04:05:35;3.07;;;2.70;;
7917;SDS011;4004;42.624;23.386;2023-08-17T04:08:01;8.00;;;2.80;;
7917;SDS011;4004;42.624;23.386;2023-08-17T04:10:28;3.03;;;2.63;;
7917;SDS011;4004;42.624;23.386;2023-08-17T04:12:57;4.57;;;2.50;;
7917;SDS011;4004;42.624;23.386;2023-08-17T04:15:23;3.00;;;2.50;;
7917;SDS011;4004;42.624;23.386;2023-08-17T04:17:50;3.87;;;2.37;;
7917;SDS011;4004;42.624;23.386;2023-08-17T04:20:17;3.13;;;2.57;;
7917;SDS011;4004;42.624;23.386;2023-08-17T04:22:44;5.80;;;2.57;;
7917;SDS011;4004;42.624;23.386;2023-08-17T04:25:11;3.90;;;2.47;;
7917;SDS011;4004;42.624;23.386;2023-08-17T04:27:38;12.77;;;2.73;;
7917;SDS011;4004;42.624;23.386;2023-08-17T04:30:07;5.47;;;2.33;;
7917;SDS011;4004;42.624;23.386;2023-08-17T04:32:35;4.20;;;2.40;;
7917;SDS011;4004;42.624;23.386;2023-08-17T04:35:02;4.70;;;2.60;;
7917;SDS011;4004;42.624;23.386;2023-08-17T04:37:29;2.70;;;2.00;;
7917;SDS011;4004;42.624;23.386;2023-08-17T04:39:55;4.73;;;2.33;;
7917;SDS011;4004;42.624;23.386;2023-08-17T04:42:22;3.67;;;2.23;;
7917;SDS011;4004;42.624;23.386;2023-08-17T04:44:49;5.37;;;2.57;;
7917;SDS011;4004;42.624;23.386;2023-08-17T04:47:18;2.90;;;2.13;;
7917;SDS011;4004;42.624;23.386;2023-08-17T04:49:44;5.63;;;2.07;;
7917;SDS011;4004;42.624;23.386;2023-08-17T04:52:11;5.70;;;2.10;;
7917;SDS011;4004;42.624;23.386;2023-08-17T04:54:38;6.27;;;2.37;;
7917;SDS011;4004;42.624;23.386;2023-08-17T04:57:05;5.47;;;2.50;;
7917;SDS011;4004;42.624;23.386;2023-08-17T04:59:31;4.53;;;2.13;;
7917;SDS011;4004;42.624;23.386;2023-08-17T05:01:58;5.60;;;2.50;;
7917;SDS011;4004;42.624;23.386;2023-08-17T05:04:26;3.57;;;2.10;;
7917;SDS011;4004;42.624;23.386;2023-08-17T05:06:53;7.40;;;2.33;;
7917;SDS011;4004;42.624;23.386;2023-08-17T05:09:20;3.97;;;2.30;;
7917;SDS011;4004;42.624;23.386;2023-08-17T05:11:46;6.37;;;2.20;;
7917;SDS011;4004;42.624;23.386;2023-08-17T05:14:13;5.73;;;2.40;;
7917;SDS011;4004;42.624;23.386;2023-08-17T05:16:40;5.00;;;2.23;;
7917;SDS011;4004;42.624;23.386;2023-08-17T05:19:07;4.53;;;2.20;;
7917;SDS011;4004;42.624;23.386;2023-08-17T05:21:35;3.97;;;2.40;;
7917;SDS011;4004;42.624;23.386;2023-08-17T05:24:02;3.63;;;1.90;;
7917;SDS011;4004;42.624;23.386;2023-08-17T05:26:29;3.87;;;2.23;;
7917;SDS011;4004;42.624;23.386;2023-08-17T05:28:55;3.20;;;2.27;;
7917;SDS011;4004;42.624;23.386;2023-08-17T05:31:22;7.43;;;2.57;;
7917;SDS011;4004;42.624;23.386;2023-08-17T05:33:49;3.50;;;2.00;;
7917;SDS011;4004;42.624;23.386;2023-08-17T05:36:15;6.43;;;2.37;;
7917;SDS011;4004;42.624;23.386;2023-08-17T05:38:44;7.67;;;2.43;;
7917;SDS011;4004;42.624;23.386;2023-08-17T05:41:10;6.27;;;2.60;;
7917;SDS011;4004;42.624;23.386;2023-08-17T05:43:37;5.47;;;2.30;;
7917;SDS011;4004;42.624;23.386;2023-08-17T05:46:04;5.37;;;2.30;;
7917;SDS011;4004;42.624;23.386;2023-08-17T05:48:32;5.13;;;2.27;;
7917;SDS011;4004;42.624;23.386;2023-08-17T05:50:59;3.33;;;2.20;;
7917;SDS011;4004;42.624;23.386;2023-08-17T05:53:25;4.07;;;1.90;;
7917;SDS011;4004;42.624;23.386;2023-08-17T05:55:53;5.90;;;2.70;;
7917;SDS011;4004;42.624;23.386;2023-08-17T05:58:20;4.20;;;2.30;;
7917;SDS011;4004;42.624;23.386;2023-08-17T06:00:47;4.30;;;2.20;;
7917;SDS011;4004;42.624;23.386;2023-08-17T06:03:14;6.03;;;2.57;;
7917;SDS011;4004;42.624;23.386;2023-08-17T06:05:41;6.00;;;3.23;;
7917;SDS011;4004;42.624;23.386;2023-08-17T06:08:08;13.03;;;3.37;;
7917;SDS011;4004;42.624;23.386;2023-08-17T06:10:34;13.20;;;3.10;;
7917;SDS011;4004;42.624;23.386;2023-08-17T06:13:03;12.03;;;3.43;;
7917;SDS011;4004;42.624;23.386;2023-08-17T06:15:30;7.47;;;3.27;;
7917;SDS011;4004;42.624;23.386;2023-08-17T06:17:56;12.53;;;3.10;;
7917;SDS011;4004;42.624;23.386;2023-08-17T06:20:23;10.43;;;3.93;;
7917;SDS011;4004;42.624;23.386;2023-08-17T06:22:50;7.70;;;3.80;;
7917;SDS011;4004;42.624;23.386;2023-08-17T06:25:16;9.40;;;3.70;;
7917;SDS011;4004;42.624;23.386;2023-08-17T06:27:43;4.47;;;2.90;;
7917;SDS011;4004;42.624;23.386;2023-08-17T06:30:12;10.37;;;3.27;;
7917;SDS011;4004;42.624;23.386;2023-08-17T06:32:39;6.80;;;2.90;;
7917;SDS011;4004;42.624;23.386;2023-08-17T06:35:06;7.57;;;3.27;;
7917;SDS011;4004;42.624;23.386;2023-08-17T06:37:34;10.43;;;3.20;;
7917;SDS011;4004;42.624;23.386;2023-08-17T06:40:01;4.73;;;3.10;;
7917;SDS011;4004;42.624;23.386;2023-08-17T06:42:28;11.43;;;3.20;;
7917;SDS011;4004;42.624;23.386;2023-08-17T06:44:55;8.43;;;4.00;;
7917;SDS011;4004;42.624;23.386;2023-08-17T06:47:23;5.43;;;3.80;;
7917;SDS011;4004;42.624;23.386;2023-08-17T06:49:50;4.43;;;3.47;;
7917;SDS011;4004;42.624;23.386;2023-08-17T06:52:16;12.03;;;3.80;;
7917;SDS011;4004;42.624;23.386;2023-08-17T06:54:43;8.23;;;3.90;;
7917;SDS011;4004;42.624;23.386;2023-08-17T06:57:10;5.85;;;3.78;;
7917;SDS011;4004;42.624;23.386;2023-08-17T06:59:37;7.87;;;3.57;;
7917;SDS011;4004;42.624;23.386;2023-08-17T07:02:03;6.77;;;3.70;;
7917;SDS011;4004;42.624;23.386;2023-08-17T07:04:31;6.50;;;2.83;;
7917;SDS011;4004;42.624;23.386;2023-08-17T07:06:58;8.77;;;4.03;;
7917;SDS011;4004;42.624;23.386;2023-08-17T07:09:25;7.33;;;3.07;;
7917;SDS011;4004;42.624;23.386;2023-08-17T07:11:53;5.07;;;3.17;;
7917;SDS011;4004;42.624;23.386;2023-08-17T07:14:20;5.80;;;2.70;;
7917;SDS011;4004;42.624;23.386;2023-08-17T07:16:47;9.47;;;3.23;;
7917;SDS011;4004;42.624;23.386;2023-08-17T07:19:13;8.57;;;3.57;;
7917;SDS011;4004;42.624;23.386;2023-08-17T07:21:41;9.13;;;4.17;;
7917;SDS011;4004;42.624;23.386;2023-08-17T07:24:11;6.47;;;3.00;;
7917;SDS011;4004;42.624;23.386;2023-08-17T07:26:39;6.33;;;3.10;;
7917;SDS011;4004;42.624;23.386;2023-08-17T07:29:06;7.63;;;2.90;;
7917;SDS011;4004;42.624;23.386;2023-08-17T07:31:32;7.70;;;3.43;;
7917;SDS011;4004;42.624;23.386;2023-08-17T07:34:02;5.43;;;2.70;;
7917;SDS011;4004;42.624;23.386;2023-08-17T07:36:29;6.07;;;2.87;;
7917;SDS011;4004;42.624;23.386;2023-08-17T07:38:58;6.83;;;2.63;;
7917;SDS011;4004;42.624;23.386;2023-08-17T07:41:25;5.23;;;2.77;;
7917;SDS011;4004;42.624;23.386;2023-08-17T07:43:52;4.90;;;2.73;;
7917;SDS011;4004;42.624;23.386;2023-08-17T07:46:19;6.80;;;3.07;;
7917;SDS011;4004;42.624;23.386;2023-08-17T07:48:45;9.02;;;3.63;;
7917;SDS011;4004;42.624;23.386;2023-08-17T07:51:12;5.43;;;3.27;;
7917;SDS011;4004;42.624;23.386;2023-08-17T07:53:39;4.37;;;3.07;;
7917;SDS011;4004;42.624;23.386;2023-08-17T07:56:07;5.47;;;3.00;;
7917;SDS011;4004;42.624;23.386;2023-08-17T07:58:34;4.80;;;3.27;;
7917;SDS011;4004;42.624;23.386;2023-08-17T08:01:01;8.43;;;2.93;;
7917;SDS011;4004;42.624;23.386;2023-08-17T08:03:27;7.83;;;3.03;;
7917;SDS011;4004;42.624;23.386;2023-08-17T08:05:54;4.77;;;3.20;;
7917;SDS011;4004;42.624;23.386;2023-08-17T08:08:21;7.80;;;3.40;;
7917;SDS011;4004;42.624;23.386;2023-08-17T08:10:48;5.30;;;3.47;;
7917;SDS011;4004;42.624;23.386;2023-08-17T08:13:16;7.50;;;3.20;;
7917;SDS011;4004;42.624;23.386;2023-08-17T08:15:42;7.13;;;3.50;;
7917;SDS011;4004;42.624;23.386;2023-08-17T08:18:09;7.80;;;3.67;;
7917;SDS011;4004;42.624;23.386;2023-08-17T08:20:36;6.27;;;3.20;;
7917;SDS011;4004;42.624;23.386;2023-08-17T08:23:03;4.80;;;3.30;;
7917;SDS011;4004;42.624;23.386;2023-08-17T08:25:30;5.83;;;3.20;;
7917;SDS011;4004;42.624;23.386;2023-08-17T08:27:56;5.17;;;3.20;;
7917;SDS011;4004;42.624;23.386;2023-08-17T08:30:24;8.83;;;3.43;;
7917;SDS011;4004;42.624;23.386;2023-08-17T08:32:51;4.27;;;3.47;;
7917;SDS011;4004;42.624;23.386;2023-08-17T08:35:20;10.73;;;3.47;;
7917;SDS011;4004;42.624;23.386;2023-08-17T08:37:49;7.80;;;3.07;;
7917;SDS011;4004;42.624;23.386;2023-08-17T08:40:16;10.27;;;3.53;;
7917;SDS011;4004;42.624;23.386;2023-08-17T08:42:43;3.63;;;2.67;;
7917;SDS011;4004;42.624;23.386;2023-08-17T08:45:10;6.00;;;2.77;;
7917;SDS011;4004;42.624;23.386;2023-08-17T08:47:38;4.47;;;2.80;;
7917;SDS011;4004;42.624;23.386;2023-08-17T08:50:08;6.00;;;2.90;;
7917;SDS011;4004;42.624;23.386;2023-08-17T08:52:40;9.40;;;2.53;;
7917;SDS011;4004;42.624;23.386;2023-08-17T08:55:11;4.07;;;2.90;;
7917;SDS011;4004;42.624;23.386;2023-08-17T08:57:45;6.50;;;3.17;;
7917;SDS011;4004;42.624;23.386;2023-08-17T09:00:13;9.17;;;4.03;;
7917;SDS011;4004;42.624;23.386;2023-08-17T09:02:42;6.33;;;2.90;;
7917;SDS011;4004;42.624;23.386;2023-08-17T09:05:10;9.70;;;3.60;;
7917;SDS011;4004;42.624;23.386;2023-08-17T09:07:37;4.73;;;2.63;;
7917;SDS011;4004;42.624;23.386;2023-08-17T09:10:05;4.83;;;2.50;;
7917;SDS011;4004;42.624;23.386;2023-08-17T09:12:32;6.60;;;2.77;;
7917;SDS011;4004;42.624;23.386;2023-08-17T09:14:59;5.40;;;2.90;;
7917;SDS011;4004;42.624;23.386;2023-08-17T09:17:26;7.07;;;2.40;;
7917;SDS011;4004;42.624;23.386;2023-08-17T09:19:54;8.70;;;2.63;;
7917;SDS011;4004;42.624;23.386;2023-08-17T09:22:22;4.83;;;2.47;;
7917;SDS011;4004;42.624;23.386;2023-08-17T09:24:49;5.90;;;2.77;;
7917;SDS011;4004;42.624;23.386;2023-08-17T09:27:16;5.87;;;2.70;;
7917;SDS011;4004;42.624;23.386;2023-08-17T09:29:43;5.47;;;2.70;;
7917;SDS011;4004;42.624;23.386;2023-08-17T09:32:11;5.50;;;2.63;;
7917;SDS011;4004;42.624;23.386;2023-08-17T09:34:41;7.83;;;2.13;;
7917;SDS011;4004;42.624;23.386;2023-08-17T09:37:18;4.97;;;2.43;;
7917;SDS011;4004;42.624;23.386;2023-08-17T09:39:44;5.23;;;2.17;;
7917;SDS011;4004;42.624;23.386;2023-08-17T09:42:11;4.57;;;2.20;;
7917;SDS011;4004;42.624;23.386;2023-08-17T09:44:38;4.33;;;2.30;;
7917;SDS011;4004;42.624;23.386;2023-08-17T09:47:05;3.47;;;2.07;;
7917;SDS011;4004;42.624;23.386;2023-08-17T09:49:33;4.70;;;1.80;;
7917;SDS011;4004;42.624;23.386;2023-08-17T09:52:00;8.73;;;2.30;;
7917;SDS011;4004;42.624;23.386;2023-08-17T09:54:30;8.30;;;2.20;;
7917;SDS011;4004;42.624;23.386;2023-08-17T09:56:57;2.77;;;2.40;;
7917;SDS011;4004;42.624;23.386;2023-08-17T09:59:24;4.93;;;2.60;;
7917;SDS011;4004;42.624;23.386;2023-08-17T10:01:51;3.67;;;2.30;;
7917;SDS011;4004;42.624;23.386;2023-08-17T10:04:19;4.67;;;2.10;;
7917;SDS011;4004;42.624;23.386;2023-08-17T10:06:48;3.03;;;1.97;;
7917;SDS011;4004;42.624;23.386;2023-08-17T10:09:19;7.30;;;1.80;;
7917;SDS011;4004;42.624;23.386;2023-08-17T10:11:52;4.07;;;2.10;;
7917;SDS011;4004;42.624;23.386;2023-08-17T10:14:29;5.47;;;2.00;;
7917;SDS011;4004;42.624;23.386;2023-08-17T10:17:01;4.03;;;2.30;;
7917;SDS011;4004;42.624;23.386;2023-08-17T10:19:37;4.53;;;2.20;;
7917;SDS011;4004;42.624;23.386;2023-08-17T10:22:10;5.23;;;2.10;;
7917;SDS011;4004;42.624;23.386;2023-08-17T10:24:42;4.40;;;2.10;;
7917;SDS011;4004;42.624;23.386;2023-08-17T10:27:10;5.07;;;2.20;;
7917;SDS011;4004;42.624;23.386;2023-08-17T10:29:39;6.60;;;2.40;;
7917;SDS011;4004;42.624;23.386;2023-08-17T10:32:08;6.03;;;2.03;;
7917;SDS011;4004;42.624;23.386;2023-08-17T10:34:35;2.23;;;1.80;;
7917;SDS011;4004;42.624;23.386;2023-08-17T10:37:04;3.10;;;1.90;;
7917;SDS011;4004;42.624;23.386;2023-08-17T10:39:32;4.47;;;1.77;;
7917;SDS011;4004;42.624;23.386;2023-08-17T10:42:00;5.43;;;1.80;;
7917;SDS011;4004;42.624;23.386;2023-08-17T10:44:42;3.80;;;1.60;;
7917;SDS011;4004;42.624;23.386;2023-08-17T10:49:57;4.23;;;2.10;;
7917;SDS011;4004;42.624;23.386;2023-08-17T10:52:25;3.80;;;1.93;;
7917;SDS011;4004;42.624;23.386;2023-08-17T10:54:53;6.33;;;1.93;;
7917;SDS011;4004;42.624;23.386;2023-08-17T10:57:24;5.33;;;1.80;;
7917;SDS011;4004;42.624;23.386;2023-08-17T11:00:08;3.53;;;1.90;;
7917;SDS011;4004;42.624;23.386;2023-08-17T11:02:40;4.80;;;1.90;;
7917;SDS011;4004;42.624;23.386;2023-08-17T11:05:09;5.37;;;2.30;;
7917;SDS011;4004;42.624;23.386;2023-08-17T11:07:40;5.13;;;2.00;;
7917;SDS011;4004;42.624;23.386;2023-08-17T11:10:10;3.03;;;1.67;;
7917;SDS011;4004;42.624;23.386;2023-08-17T11:12:40;7.27;;;2.07;;
7917;SDS011;4004;42.624;23.386;2023-08-17T11:15:09;3.20;;;2.00;;
7917;SDS011;4004;42.624;23.386;2023-08-17T11:17:36;4.50;;;2.10;;
7917;SDS011;4004;42.624;23.386;2023-08-17T11:20:03;3.00;;;2.10;;
7917;SDS011;4004;42.624;23.386;2023-08-17T11:22:31;5.37;;;2.13;;
7917;SDS011;4004;42.624;23.386;2023-08-17T11:24:58;5.07;;;1.93;;
7917;SDS011;4004;42.624;23.386;2023-08-17T11:27:25;5.77;;;1.93;;
7917;SDS011;4004;42.624;23.386;2023-08-17T11:29:52;7.47;;;2.20;;
7917;SDS011;4004;42.624;23.386;2023-08-17T11:32:20;7.73;;;2.40;;
7917;SDS011;4004;42.624;23.386;2023-08-17T11:34:47;4.43;;;2.07;;
7917;SDS011;4004;42.624;23.386;2023-08-17T11:37:14;4.83;;;1.90;;
7917;SDS011;4004;42.624;23.386;2023-08-17T11:39:42;2.00;;;1.80;;
7917;SDS011;4004;42.624;23.386;2023-08-17T11:42:09;3.70;;;2.40;;
7917;SDS011;4004;42.624;23.386;2023-08-17T11:44:37;3.33;;;1.90;;
7917;SDS011;4004;42.624;23.386;2023-08-17T11:47:04;4.57;;;2.33;;
7917;SDS011;4004;42.624;23.386;2023-08-17T11:49:32;4.87;;;2.43;;
7917;SDS011;4004;42.624;23.386;2023-08-17T11:51:59;3.90;;;2.37;;
7917;SDS011;4004;42.624;23.386;2023-08-17T11:54:26;6.37;;;2.50;;
7917;SDS011;4004;42.624;23.386;2023-08-17T11:56:53;7.20;;;2.60;;
7917;SDS011;4004;42.624;23.386;2023-08-17T11:59:20;5.90;;;2.60;;
7917;SDS011;4004;42.624;23.386;2023-08-17T12:01:48;6.43;;;2.80;;
7917;SDS011;4004;42.624;23.386;2023-08-17T12:04:15;5.03;;;2.47;;
7917;SDS011;4004;42.624;23.386;2023-08-17T12:06:44;4.97;;;2.63;;
7917;SDS011;4004;42.624;23.386;2023-08-17T12:09:11;5.10;;;2.70;;
7917;SDS011;4004;42.624;23.386;2023-08-17T12:11:39;9.77;;;2.90;;
7917;SDS011;4004;42.624;23.386;2023-08-17T12:14:09;6.50;;;2.90;;
7917;SDS011;4004;42.624;23.386;2023-08-17T12:16:44;4.37;;;3.10;;
7917;SDS011;4004;42.624;23.386;2023-08-17T12:19:12;6.20;;;2.97;;
7917;SDS011;4004;42.624;23.386;2023-08-17T12:21:40;4.57;;;3.03;;
7917;SDS011;4004;42.624;23.386;2023-08-17T12:24:09;3.07;;;2.77;;
7917;SDS011;4004;42.624;23.386;2023-08-17T12:26:40;7.20;;;2.97;;
7917;SDS011;4004;42.624;23.386;2023-08-17T12:29:07;4.20;;;2.67;;
7917;SDS011;4004;42.624;23.386;2023-08-17T12:31:34;8.83;;;3.10;;
7917;SDS011;4004;42.624;23.386;2023-08-17T12:34:01;4.07;;;3.10;;
7917;SDS011;4004;42.624;23.386;2023-08-17T12:36:29;6.50;;;3.10;;
7917;SDS011;4004;42.624;23.386;2023-08-17T12:38:58;5.40;;;3.23;;
7917;SDS011;4004;42.624;23.386;2023-08-17T12:41:26;3.63;;;2.90;;
7917;SDS011;4004;42.624;23.386;2023-08-17T12:43:53;3.60;;;2.80;;
7917;SDS011;4004;42.624;23.386;2023-08-17T12:46:20;5.60;;;2.80;;
7917;SDS011;4004;42.624;23.386;2023-08-17T12:48:46;7.10;;;2.90;;
7917;SDS011;4004;42.624;23.386;2023-08-17T12:51:13;4.10;;;2.87;;
7917;SDS011;4004;42.624;23.386;2023-08-17T12:53:40;3.60;;;2.80;;
7917;SDS011;4004;42.624;23.386;2023-08-17T12:56:07;9.57;;;3.23;;
7917;SDS011;4004;42.624;23.386;2023-08-17T12:58:35;3.47;;;3.00;;
7917;SDS011;4004;42.624;23.386;2023-08-17T13:01:02;6.07;;;2.67;;
7917;SDS011;4004;42.624;23.386;2023-08-17T13:03:29;3.60;;;2.97;;
7917;SDS011;4004;42.624;23.386;2023-08-17T13:05:56;3.97;;;3.03;;
7917;SDS011;4004;42.624;23.386;2023-08-17T13:08:22;7.27;;;3.17;;
7917;SDS011;4004;42.624;23.386;2023-08-17T13:10:49;5.60;;;3.00;;
7917;SDS011;4004;42.624;23.386;2023-08-17T13:13:16;3.20;;;2.90;;
7917;SDS011;4004;42.624;23.386;2023-08-17T13:15:44;5.33;;;3.30;;
7917;SDS011;4004;42.624;23.386;2023-08-17T13:18:11;5.57;;;3.00;;
7917;SDS011;4004;42.624;23.386;2023-08-17T13:20:38;5.43;;;3.23;;
7917;SDS011;4004;42.624;23.386;2023-08-17T13:23:05;6.37;;;3.23;;
7917;SDS011;4004;42.624;23.386;2023-08-17T13:25:32;5.33;;;3.03;;
7917;SDS011;4004;42.624;23.386;2023-08-17T13:27:58;3.60;;;3.03;;
7917;SDS011;4004;42.624;23.386;2023-08-17T13:30:25;4.57;;;3.40;;
7917;SDS011;4004;42.624;23.386;2023-08-17T13:32:53;4.63;;;3.17;;
7917;SDS011;4004;42.624;23.386;2023-08-17T13:35:22;8.00;;;3.30;;
7917;SDS011;4004;42.624;23.386;2023-08-17T13:37:50;4.83;;;3.43;;
7917;SDS011;4004;42.624;23.386;2023-08-17T13:40:18;3.43;;;2.97;;
7917;SDS011;4004;42.624;23.386;2023-08-17T13:42:45;4.93;;;3.40;;
7917;SDS011;4004;42.624;23.386;2023-08-17T13:45:12;5.03;;;3.33;;
7917;SDS011;4004;42.624;23.386;2023-08-17T13:47:38;8.50;;;2.93;;
7917;SDS011;4004;42.624;23.386;2023-08-17T13:50:07;8.67;;;2.77;;
7917;SDS011;4004;42.624;23.386;2023-08-17T13:52:34;5.73;;;3.27;;
7917;SDS011;4004;42.624;23.386;2023-08-17T13:55:01;6.57;;;3.40;;
7917;SDS011;4004;42.624;23.386;2023-08-17T13:57:28;4.43;;;3.30;;
7917;SDS011;4004;42.624;23.386;2023-08-17T13:59:55;5.40;;;3.40;;
7917;SDS011;4004;42.624;23.386;2023-08-17T14:02:21;4.40;;;2.73;;
7917;SDS011;4004;42.624;23.386;2023-08-17T14:04:48;12.17;;;3.97;;
7917;SDS011;4004;42.624;23.386;2023-08-17T14:07:16;8.37;;;3.33;;
7917;SDS011;4004;42.624;23.386;2023-08-17T14:09:43;5.53;;;3.60;;
7917;SDS011;4004;42.624;23.386;2023-08-17T14:12:10;13.90;;;3.47;;
7917;SDS011;4004;42.624;23.386;2023-08-17T14:14:36;4.90;;;2.97;;
7917;SDS011;4004;42.624;23.386;2023-08-17T14:17:03;4.63;;;2.80;;
7917;SDS011;4004;42.624;23.386;2023-08-17T14:19:30;6.43;;;3.13;;
7917;SDS011;4004;42.624;23.386;2023-08-17T14:21:57;7.30;;;3.00;;
7917;SDS011;4004;42.624;23.386;2023-08-17T14:24:27;4.17;;;2.90;;
7917;SDS011;4004;42.624;23.386;2023-08-17T14:26:54;6.13;;;3.00;;
7917;SDS011;4004;42.624;23.386;2023-08-17T14:29:22;5.67;;;3.03;;
7917;SDS011;4004;42.624;23.386;2023-08-17T14:31:48;5.33;;;3.00;;
7917;SDS011;4004;42.624;23.386;2023-08-17T14:34:15;6.50;;;2.67;;
7917;SDS011;4004;42.624;23.386;2023-08-17T14:36:42;6.40;;;2.90;;
7917;SDS011;4004;42.624;23.386;2023-08-17T14:39:08;4.97;;;2.87;;
7917;SDS011;4004;42.624;23.386;2023-08-17T14:41:37;4.10;;;3.20;;
7917;SDS011;4004;42.624;23.386;2023-08-17T14:44:04;10.83;;;3.70;;
7917;SDS011;4004;42.624;23.386;2023-08-17T14:46:31;7.03;;;3.10;;
7917;SDS011;4004;42.624;23.386;2023-08-17T14:48:57;8.43;;;2.97;;
7917;SDS011;4004;42.624;23.386;2023-08-17T14:51:24;6.83;;;3.43;;
7917;SDS011;4004;42.624;23.386;2023-08-17T14:53:51;5.60;;;3.27;;
7917;SDS011;4004;42.624;23.386;2023-08-17T14:56:18;6.57;;;3.13;;
7917;SDS011;4004;42.624;23.386;2023-08-17T14:58:46;6.20;;;3.30;;
7917;SDS011;4004;42.624;23.386;2023-08-17T15:01:13;5.30;;;2.60;;
7917;SDS011;4004;42.624;23.386;2023-08-17T15:03:40;7.13;;;3.20;;
7917;SDS011;4004;42.624;23.386;2023-08-17T15:06:06;6.67;;;3.17;;